Hlavní strana
METAR-TAF:

METAR-TAF

Letiště :

Mezinárodní letiště Krále Abda al-Azíze

Džidda, Saúdská Arábie

zeměpisná šířka: 21-42N, zeměpisná délka: 039-11E, výška: 15 m

Aktuální stav počasí

Zpráva byla vytvořena před 21 minutami, v 08:00 UTC
Severní vítr 4 kt
Teplota 32°C
Vlhkost vzduchu 41%
Tlak 1012 hPa
Viditelnost 10 km a více
Oblačno až skoro zataženo ve výšce 3500 ft

METAR: OEJN 180800Z 36004KT 9999 BKN035 32/17 Q1012 NOSIG

Čas: 11:21 (08:21 UTC)

Předpověď počasí

Zpráva byla vytvořena před 3 hodinami a 21 minutami, v 05:00 UTC
Předpověď platná od 18 v 06 UTC do 19 v 12 UTC
Západojihozápadní vítr 14 kt
Viditelnost: 7000 m
Skoro jasno ve výšce 4000 ft
Polojasno ve výšce 10000 ft
Dočasný
od 18 v 06 UTC do 18 v 16 UTC
Skoro jasno ve výšce 3500 ft, Cumulonimbus.
Polojasno ve výšce 4000 ft
bouřka, déšť

TAF: OEJN 180500Z 1806/1912 24014KT 7000 FEW040 SCT100 TEMPO 1806/1816 TSRA FEW035CB SCT040

Stav a předpovědi počasí z více než 4 000 letišť (zprávy METAR a TAF).

Červené a žluté tečky na mapě představují dostupné meteorologické stanice.

Když kurzor umístíte na tečku, zobrazí se název stanice.

Pak kliknutím zobrazíte stav a předpověď počasí.

Chcete-li změnit mapu, kliknutím na zelené tlačítko se znaménkem +mapu přiblížíte, kliknutím na zelené tlačítko se znaménkem – mapu oddálíte a kliknutím na zelené šipky přejdete na sousední mapy.


METAR-TAF: